Latest Weather Observations for Condobolin Airport

IDN60801

Issued at 2:05 pm EST Sunday 31 August 2014 (issued every 30 minutes, with the page automatically refreshed every 10 minutes)

About weather observations | Map of weather stations | Latest weather observations for NSW | Other Formats
Station Details ID: 050137 Name: CONDOBOLIN AIRPORT AWS Lat: -33.07 Lon: 147.21 Height: 192.6 m
Data from the previous 72 hours. | See also: Recent months at Condobolin Airport
Date/Time
EST
Temp
°C
App
Temp
°C
Dew
Point
Rel
Hum
%
Delta-T
°C
Wind Press
QNH
hPa
Press
MSL
hPa
Rain
since 9 am
mm
Dir
 
Spd
km/h
Gust
km/h
Spd
kts
Gust
kts
31/02:00pm 21.3 18.3 4.0 32 8.4 W 9 17 5 9 1017.7 - 0.0
31/01:30pm 21.8 18.1 4.4 32 8.6 W 13 20 7 11 1018.2 - 0.0
31/01:00pm 21.0 17.7 6.2 38 7.5 WNW 13 19 7 10 1018.8 - 0.0
31/12:30pm 20.5 18.1 6.8 41 7.0 WNW 9 17 5 9 1019.3 - 0.0
31/12:00pm 20.1 17.9 7.8 45 6.4 WNW 9 20 5 11 1020.0 1020.2 0.0
31/11:30am 18.2 16.3 7.6 50 5.4 N 7 13 4 7 1020.7 - 0.0
31/11:00am 19.1 16.9 9.3 53 5.2 NNE 11 15 6 8 1021.1 - 0.0
31/10:30am 18.4 16.6 9.5 56 4.7 N 9 15 5 8 1021.6 - 0.0
31/10:00am 17.2 15.8 9.6 61 4.0 N 7 11 4 6 1021.9 - 0.0
31/09:30am 15.3 14.1 9.4 68 3.1 SE 6 9 3 5 1022.0 - 0.0
31/09:00am 12.6 11.1 8.5 76 2.1 SE 6 9 3 5 1022.1 1022.4 0.0
31/08:30am 10.0 9.6 8.3 89 0.8 CALM 0 0 0 0 1022.1 - 0.0
31/08:00am 6.6 5.8 6.5 99 0.0 CALM 0 0 0 0 1022.1 - 0.0
31/07:30am 4.3 3.0 4.0 98 0.1 CALM 0 0 0 0 1021.9 - 0.0
31/07:00am 1.7 -0.1 1.3 97 0.2 CALM 0 0 0 0 1021.4 - 0.0
31/06:30am 1.8 0.0 1.4 97 0.2 CALM 0 0 0 0 1021.2 - 0.0
31/06:00am 1.5 -0.4 0.6 94 0.3 SE 0 2 0 1 1020.7 1020.9 0.0
31/05:30am 1.6 -0.3 0.6 93 0.4 CALM 0 0 0 0 1020.7 - 0.0
31/05:00am 1.7 -0.1 1.0 95 0.3 CALM 0 0 0 0 1020.6 - 0.0
31/04:30am 1.5 -0.4 0.3 92 0.4 CALM 0 0 0 0 1020.6 - 0.0
31/04:00am 2.0 -0.2 1.3 95 0.3 SE 2 6 1 3 1020.5 - 0.0
31/03:30am 2.2 0.4 1.2 93 0.4 CALM 0 0 0 0 1020.7 - 0.0
31/03:00am 2.5 0.8 1.8 95 0.3 CALM 0 0 0 0 1020.9 1021.1 0.0
31/02:30am 3.3 1.7 2.4 94 0.4 CALM 0 0 0 0 1021.2 - 0.0
31/02:00am 3.4 1.8 2.2 92 0.5 CALM 0 0 0 0 1021.3 - 0.0
31/01:30am 3.7 2.1 2.2 90 0.6 CALM 0 0 0 0 1021.6 - 0.0
31/01:00am 4.4 2.9 2.9 90 0.6 CALM 0 0 0 0 1021.9 - 0.0
31/12:30am 4.7 3.2 2.9 88 0.7 CALM 0 0 0 0 1021.9 - 0.0
31/12:00am 5.0 3.5 3.2 88 0.7 SE 0 0 0 0 1022.0 1022.3 0.0
 
Date/Time
EST
Temp
°C
App
Temp
°C
Dew
Point
Rel
Hum
%
Delta-T
°C
Wind Press
QNH
hPa
Press
MSL
hPa
Rain
since 9 am
mm
Dir
 
Spd
km/h
Gust
km/h
Spd
kts
Gust
kts
30/11:30pm 5.4 4.0 3.4 87 0.8 CALM 0 0 0 0 1022.1 - 0.0
30/11:00pm 5.2 3.7 2.9 85 1.0 CALM 0 0 0 0 1022.2 - 0.0
30/10:30pm 5.3 3.8 3.0 85 1.0 CALM 0 0 0 0 1022.3 - 0.0
30/10:00pm 6.0 4.6 3.5 84 1.1 CALM 0 0 0 0 1022.3 - 0.0
30/09:30pm 7.0 5.6 3.8 80 1.4 CALM 0 0 0 0 1022.4 - 0.0
30/09:00pm 6.6 5.2 3.4 80 1.4 CALM 0 0 0 0 1022.5 1022.8 0.0
30/08:30pm 8.2 6.6 4.4 77 1.7 SE 2 6 1 3 1022.4 - 0.0
30/08:00pm 9.2 7.7 5.0 75 1.9 SE 2 7 1 4 1022.4 - 0.0
30/07:30pm 8.9 7.5 3.5 69 2.4 CALM 0 0 0 0 1022.2 - 0.0
30/07:00pm 10.5 9.1 3.5 62 3.1 CALM 0 0 0 0 1022.1 - 0.0
30/06:30pm 12.5 11.0 3.2 53 4.2 CALM 0 0 0 0 1022.0 - 0.0
30/06:00pm 14.9 12.3 3.4 46 5.3 SE 6 7 3 4 1021.9 1022.2 0.0
30/05:30pm 17.1 14.0 3.4 40 6.4 SE 9 13 5 7 1021.7 - 0.0
30/05:00pm 18.6 14.5 2.0 33 7.6 SE 13 19 7 10 1021.7 - 0.0
30/04:30pm 19.1 14.7 0.2 28 8.4 SE 13 19 7 10 1021.7 - 0.0
30/04:00pm 19.5 15.0 0.0 27 8.7 SSE 13 20 7 11 1021.7 - 0.0
30/03:30pm 19.7 16.0 2.1 31 8.2 SSE 11 20 6 11 1021.7 - 0.0
30/03:00pm 19.7 16.0 2.1 31 8.1 S 11 17 6 9 1021.8 1022.1 0.0
30/02:30pm 19.5 15.4 2.4 32 8.0 SE 13 20 7 11 1022.2 - 0.0
30/02:00pm 19.4 15.9 3.6 35 7.5 SE 11 17 6 9 1022.5 - 0.0
30/01:30pm 18.7 15.3 4.1 38 7.0 ESE 11 19 6 10 1023.0 - 0.0
30/01:00pm 18.5 15.7 5.0 41 6.6 SSE 9 17 5 9 1023.4 - 0.0
30/12:30pm 18.4 14.9 5.3 42 6.4 SE 13 22 7 12 1024.0 - 0.0
30/12:00pm 17.7 13.6 6.3 47 5.6 SE 17 24 9 13 1024.7 1025.0 0.0
30/11:30am 17.4 13.6 6.0 47 5.6 E 15 22 8 12 1025.3 - 0.0
30/11:00am 16.6 12.3 5.3 47 5.5 ESE 17 22 9 12 1025.6 - 0.0
30/10:30am 15.8 11.0 4.8 48 5.2 ESE 19 26 10 14 1025.8 - 0.0
30/10:00am 15.2 10.3 5.1 51 4.8 ESE 20 28 11 15 1026.1 - 0.0
30/09:30am 13.9 9.6 5.3 56 4.1 ESE 17 22 9 12 1026.4 - 0.0
30/09:00am 12.3 8.9 5.9 65 3.0 SE 13 20 7 11 1026.3 1026.6 0.0
30/08:30am 10.4 7.8 6.2 75 2.0 SSE 9 15 5 8 1026.3 - 0.0
30/08:00am 8.3 6.3 7.1 92 0.6 SSE 7 9 4 5 1026.2 - 0.0
30/07:30am 3.6 2.1 3.0 96 0.2 CALM 0 0 0 0 1026.0 - 0.0
30/07:00am 0.7 -1.3 0.0 95 0.3 CALM 0 0 0 0 1025.9 - 0.0
30/06:30am 0.3 -1.7 -0.4 95 0.3 CALM 0 0 0 0 1025.7 - 0.0
30/06:00am -0.1 -2.2 -0.9 94 0.3 CALM 0 0 0 0 1025.5 1025.8 0.0
30/05:30am 0.3 -1.8 -0.7 93 0.4 CALM 0 0 0 0 1025.1 - 0.0
30/05:00am 0.8 -1.2 -0.2 93 0.4 CALM 0 0 0 0 1025.1 - 0.0
30/04:30am 1.8 0.0 1.2 96 0.2 CALM 0 0 0 0 1025.0 - 0.0
30/04:00am 1.7 -0.2 0.8 94 0.3 CALM 0 0 0 0 1024.9 - 0.0
30/03:30am 2.0 0.2 1.1 94 0.3 CALM 0 0 0 0 1024.9 - 0.0
30/03:00am 2.1 0.3 0.9 92 0.5 CALM 0 0 0 0 1024.7 1025.0 0.0
30/02:30am 2.1 0.3 0.9 92 0.5 CALM 0 0 0 0 1024.8 - 0.0
30/02:00am 2.3 0.5 1.1 92 0.5 CALM 0 0 0 0 1025.0 - 0.0
30/01:30am 2.5 0.7 1.0 90 0.6 CALM 0 0 0 0 1025.0 - 0.0
30/01:00am 3.2 1.5 1.7 90 0.6 CALM 0 0 0 0 1025.0 - 0.0
30/12:30am 3.1 1.3 1.3 88 0.7 CALM 0 0 0 0 1025.0 - 0.0
30/12:00am 3.9 2.3 2.6 91 0.5 CALM 0 0 0 0 1025.3 1025.5 0.0
 
Date/Time
EST
Temp
°C
App
Temp
°C
Dew
Point
Rel
Hum
%
Delta-T
°C
Wind Press
QNH
hPa
Press
MSL
hPa
Rain
since 9 am
mm
Dir
 
Spd
km/h
Gust
km/h
Spd
kts
Gust
kts
29/11:30pm 4.4 2.8 2.6 88 0.7 CALM 0 0 0 0 1025.1 - 0.0
29/11:00pm 5.6 4.2 3.6 87 0.8 CALM 0 0 0 0 1025.0 - 0.0
29/10:30pm 5.7 4.2 3.2 84 1.1 CALM 0 0 0 0 1025.1 - 0.0
29/10:00pm 6.7 5.4 4.2 84 1.1 CALM 0 0 0 0 1025.3 - 0.0
29/09:30pm 7.1 5.8 4.2 82 1.3 CALM 0 0 0 0 1025.3 - 0.0
29/09:00pm 7.6 6.3 4.0 78 1.6 CALM 0 0 0 0 1025.4 1025.6 0.0
29/08:30pm 8.3 6.9 3.8 73 2.0 CALM 0 0 0 0 1025.5 - 0.0
29/08:00pm 10.1 8.9 4.5 68 2.5 CALM 0 0 0 0 1025.5 - 0.0
29/07:30pm 11.8 10.6 4.8 62 3.2 CALM 0 0 0 0 1025.3 - 0.0
29/07:00pm 12.5 10.1 4.2 57 3.8 SSE 6 7 3 4 1025.0 - 0.0
29/06:30pm 14.4 11.8 4.1 50 4.8 SSE 7 9 4 5 1024.8 - 0.0
29/06:00pm 15.7 12.8 2.8 42 5.8 SSE 7 9 4 5 1024.7 1025.0 0.0
29/05:30pm 17.7 14.8 2.8 37 6.9 S 7 13 4 7 1024.5 - 0.0
29/05:00pm 19.0 14.9 2.0 32 7.8 S 13 19 7 10 1024.3 - 0.0
29/04:30pm 19.7 15.6 2.1 31 8.2 S 13 19 7 10 1024.2 - 0.0
29/04:00pm 20.0 15.8 1.9 30 8.4 SSW 13 20 7 11 1024.1 - 0.0
29/03:30pm 20.3 16.4 3.5 33 8.1 SSW 13 22 7 12 1024.2 - 0.0
29/03:00pm 19.8 15.1 3.1 33 7.9 SSW 17 28 9 15 1024.4 1024.7 0.0
29/02:30pm 20.3 16.7 5.1 37 7.5 SSW 13 26 7 14 1024.8 - 0.0
29/02:00pm 19.7 16.0 4.6 37 7.4 SSW 13 24 7 13 1025.1 - 0.0
29/01:30pm 19.8 16.8 5.8 40 7.0 SW 11 20 6 11 1025.5 - 0.0
29/01:00pm 19.0 16.1 4.7 39 7.0 SSW 9 17 5 9 1026.0 - 0.0
29/12:30pm 18.3 15.1 5.2 42 6.4 S 11 15 6 8 1026.5 - 0.0
29/12:00pm 17.9 15.5 5.2 43 6.1 S 7 11 4 6 1027.2 1027.5 0.0
29/11:30am 17.3 15.0 4.9 44 6.0 S 6 13 3 7 1027.6 - 0.0
29/11:00am 16.8 14.4 7.2 53 4.8 SSE 9 13 5 7 1027.9 - 0.0
29/10:30am 15.6 13.7 7.4 58 4.1 SSE 7 11 4 6 1028.2 - 0.0
29/10:00am 14.1 12.5 6.2 59 3.8 SSE 4 7 2 4 1028.5 - 0.0
29/09:30am 12.6 10.6 7.1 69 2.7 SSE 7 11 4 6 1028.6 - 0.0
29/09:00am 11.4 10.2 8.1 80 1.6 SSE 4 7 2 4 1028.9 1029.2 0.0
29/08:30am 9.1 8.6 7.9 92 0.6 CALM 0 2 0 1 1028.9 - 0.0
29/08:00am 7.3 6.7 7.2 99 0.0 CALM 0 0 0 0 1028.7 - 0.0
29/07:30am 4.2 2.9 4.1 99 0.0 CALM 0 0 0 0 1028.5 - 0.0
29/07:00am 1.2 -0.6 0.9 98 0.1 CALM 0 0 0 0 1028.2 - 0.0
29/06:30am 1.5 -0.3 1.1 97 0.2 CALM 0 0 0 0 1027.8 - 0.0
29/06:00am 1.2 -0.7 0.5 95 0.3 CALM 0 0 0 0 1027.7 1028.0 0.0
29/05:30am 2.0 0.2 1.4 96 0.2 CALM 0 0 0 0 1027.3 - 0.0
29/05:00am 2.1 0.3 1.4 95 0.3 CALM 0 0 0 0 1027.0 - 0.0
29/04:30am 2.5 0.8 1.8 95 0.3 CALM 0 0 0 0 1027.0 - 0.0
29/04:00am 2.6 0.9 1.9 95 0.3 CALM 0 0 0 0 1026.9 - 0.0
29/03:30am 2.2 0.4 1.0 92 0.5 CALM 0 0 0 0 1026.8 - 0.0
29/03:00am 2.5 0.8 1.6 94 0.3 CALM 0 0 0 0 1026.6 1026.9 0.0
29/02:30am 2.1 -0.5 0.8 91 0.5 SSE 4 9 2 5 1026.7 - 0.0
29/02:00am 3.0 0.5 1.8 92 0.5 SSE 4 7 2 4 1026.9 - 0.0
29/01:30am 3.4 1.8 2.2 92 0.5 CALM 0 0 0 0 1027.1 - 0.0
29/01:00am 4.1 2.6 3.1 93 0.4 CALM 0 0 0 0 1027.1 - 0.0
29/12:30am 4.6 3.2 3.3 91 0.5 CALM 0 0 0 0 1027.2 - 0.0
29/12:00am 4.8 2.1 2.5 85 0.9 SSE 6 7 3 4 1027.3 1027.6 0.0
 
Date/Time
EST
Temp
°C
App
Temp
°C
Dew
Point
Rel
Hum
%
Delta-T
°C
Wind Press
QNH
hPa
Press
MSL
hPa
Rain
since 9 am
mm
Dir
 
Spd
km/h
Gust
km/h
Spd
kts
Gust
kts
28/11:30pm 6.1 4.7 3.8 85 1.0 CALM 0 0 0 0 1027.4 - 0.0
28/11:00pm 6.6 5.5 4.9 89 0.8 CALM 0 0 0 0 1027.4 - 0.0
28/10:30pm 6.0 4.6 3.5 84 1.1 CALM 0 0 0 0 1027.5 - 0.0
28/10:00pm 7.9 6.6 4.3 78 1.6 CALM 0 0 0 0 1027.6 - 0.0
28/09:30pm 8.4 7.2 4.6 77 1.7 CALM 0 0 0 0 1027.5 - 0.0
28/09:00pm 9.1 7.9 4.5 73 2.0 CALM 0 0 0 0 1027.4 1027.7 0.0
28/08:30pm 9.3 8.0 4.1 70 2.3 CALM 0 0 0 0 1027.2 - 0.0
28/08:00pm 11.6 8.7 4.8 63 3.1 SSE 9 11 5 6 1027.0 - 0.0
28/07:30pm 12.6 9.9 5.5 62 3.3 SSE 9 11 5 6 1026.9 - 0.0
28/07:00pm 12.6 10.2 5.3 61 3.4 SSE 7 9 4 5 1026.7 - 0.0
28/06:30pm 13.8 11.1 5.7 58 3.9 SSE 9 11 5 6 1026.5 - 0.0
28/06:00pm 15.2 12.1 5.7 53 4.6 SSE 11 13 6 7 1026.2 1026.5 0.0
28/05:30pm 16.8 13.5 4.8 45 5.8 SE 11 15 6 8 1025.9 - 0.0
28/05:00pm 17.9 14.3 5.2 43 6.2 SE 13 19 7 10 1025.8 - 0.0
28/04:30pm 18.6 14.6 5.1 41 6.6 S 15 22 8 12 1025.6 - 0.0
28/04:00pm 19.2 15.2 4.9 39 7.0 SSE 15 26 8 14 1025.6 - 0.0
28/03:30pm 19.1 14.0 4.1 37 7.2 SSE 20 30 11 16 1025.6 - 0.0
28/03:00pm 18.8 15.0 5.6 42 6.5 S 15 22 8 12 1025.7 1026.0 0.0
28/02:30pm 19.5 14.8 5.9 41 6.8 S 20 30 11 16 1025.8 - 0.0

Other Formats:

Comma delimited format used in spreadsheet applications
http://www.bom.gov.au/fwo/IDN60801/IDN60801.95708.axf

JavaScript Object Notation format (JSON) in row-major order
http://www.bom.gov.au/fwo/IDN60801/IDN60801.95708.json